Flight Track Log - Related Links

Times and Time Zones

All times are in EDT time to prevent confusion due to time zone crossing. See the GTI37 flight status page for this flight to view local times or setup timezone preferences in your user account.

Time Position Orientation Groundspeed Altitude Reporting Facility
EDT Latitude Longitude Course Direction KTS MPH feet Rate Location/Type
Thu 09:13:32 AM 25.7860 -80.3060 138° Southeast 115 132  Level FlightAware ADS-B
Thu 09:13:50 AM 25.7870 -80.2920 85° East 175 201 1,440 Level FlightAware ADS-B
Thu 09:14:22 AM 25.7830 -80.2650 99° East 171 197 1,200 1,925 Climbing FlightAware ADS-B
Thu 09:14:43 AM 25.7760 -80.2480 115° Southeast 194 223 1,700 1,350 Climbing FlightAware ADS-B
Thu 09:15:02 AM 25.7680 -80.2280 114° Southeast 228 262 2,100 1,200 Climbing FlightAware ADS-B
Thu 09:15:23 AM 25.7580 -80.2050 116° Southeast 256 295 2,500 1,800 Climbing FlightAware ADS-B
Thu 09:15:42 AM 25.7470 -80.1810 117° Southeast 267 307 3,300 2,667 Climbing FlightAware ADS-B
Thu 09:15:50 AM 25.7420 -80.1710 119° Southeast 272 313 3,700 2,727 Climbing FlightAware ADS-B
Thu 09:16:15 AM 25.7240 -80.1470 130° Southeast 277 319 4,800 3,067 Climbing FlightAware ADS-B
Thu 09:16:35 AM 25.7080 -80.1210 124° Southeast 281 323 6,000 3,231 Climbing FlightAware ADS-B
Thu 09:16:54 AM 25.6940 -80.0990 125° Southeast 288 331 6,900 2,889 Climbing FlightAware ADS-B
Thu 09:17:02 AM 25.6860 -80.0890 132° Southeast 291 335 7,300 2,800 Climbing FlightAware ADS-B
Thu 09:17:09 AM 25.6790 -80.0830 142° Southeast 292 336 7,600 3,000 Climbing FlightAware ADS-B
Thu 09:17:22 AM 25.6620 -80.0740 154° Southeast 294 338 8,300 3,143 Climbing FlightAware ADS-B
Thu 09:17:30 AM 25.6530 -80.0710 163° South 295 339 8,700 3,000 Climbing FlightAware ADS-B
Thu 09:17:50 AM 25.6260 -80.0640 167° South 296 341 9,700 2,250 Climbing FlightAware ADS-B
Thu 09:18:26 AM 25.5750 -80.0520 168° South 322 371 10,800 1,457 Climbing FlightAware ADS-B
Thu 09:19:00 AM 25.5220 -80.0400 168° South 362 417 11,400 1,304 Climbing FlightAware ADS-B
Thu 09:19:35 AM 25.4620 -80.0260 168° South 394 453 12,300 1,781 Climbing FlightAware ADS-B
Thu 09:20:04 AM 25.4120 -80.0140 168° South 398 458 13,300 2,286 Climbing FlightAware ADS-B
Thu 09:20:38 AM 25.3480 -79.9990 168° South 409 471 14,700 2,344 Climbing FlightAware ADS-B
Thu 09:21:08 AM 25.2920 -79.9800 163° South 422 486 15,800 2,057 Climbing FlightAware ADS-B
Thu 09:21:48 AM 25.2270 -79.9370 149° Southeast 427 491 17,100 2,080 Climbing FlightAware ADS-B
Thu 09:22:23 AM 25.1650 -79.8920 147° Southeast 439 505 18,400 2,261 Climbing FlightAware ADS-B
Thu 09:22:57 AM 25.1050 -79.8490 147° Southeast 444 511 19,700 1,367 Climbing FlightAware ADS-B
Thu 09:23:42 AM 25.0390 -79.8010 147° Southeast 448 516 20,200 1,361 Climbing FlightAware ADS-B
Thu 09:24:34 AM 24.9470 -79.7360 147° Southeast 459 528 21,900 1,159 Climbing FlightAware ADS-B
Thu 09:25:10 AM 24.8930 -79.6960 146° Southeast 459 528 21,900 2,571 Level FlightAware ADS-B
Thu 09:25:30 AM 24.8160 -79.6860 173° South 914 1052 24,300 3,724 Climbing FlightAware ADS-B
Thu 09:26:08 AM 24.7260 -79.6460 158° South 502 578 25,500 1,024 Climbing FlightAware ADS-B
Thu 09:26:52 AM 24.6450 -79.6080 157° South 502 578 25,700 150 Climbing FlightAware ADS-B
Thu 09:27:28 AM 24.5790 -79.5780 158° South 502 578 25,700  Level FlightAware ADS-B
Thu 09:28:04 AM 24.5140 -79.5470 157° South 502 578 25,700  Level FlightAware ADS-B
Thu 09:28:40 AM 24.4490 -79.5170 157° South 502 578 25,700  Level FlightAware ADS-B
Thu 09:29:16 AM 24.3830 -79.4860 157° South 502 578 25,700  Level FlightAware ADS-B
Thu 09:29:52 AM 24.3180 -79.4560 157° South 502 578 25,700 4,258 Level FlightAware ADS-B
Thu 09:31:20 AM 24.1089 -79.2697 157° South 495 570 34,500 3,770 Climbing Miami Center
Thu 09:32:20 AM 23.9872 -79.1764 145° Southeast 495 570 35,000 Climbing Miami Center
Thu 09:34:00 AM 23.8212 -79.0209 139° Southeast  Level FlightAware Approximate
Thu 09:41:00 AM 23.0953 -78.4076 142° Southeast  Level FlightAware Approximate
Thu 09:42:00 AM 22.9917 -78.3202 142° Southeast  Level FlightAware Approximate
Thu 09:43:00 AM 22.8881 -78.2330 142° Southeast  Level FlightAware Approximate
Thu 09:44:00 AM 22.7844 -78.1459 142° Southeast  Level FlightAware Approximate
Thu 09:45:00 AM 22.6806 -78.0589 142° Southeast  Level FlightAware Approximate
Thu 09:46:00 AM 22.5768 -77.9720 142° Southeast  Level FlightAware Approximate
Thu 09:47:00 AM 22.4730 -77.8853 142° Southeast  Level FlightAware Approximate
Thu 09:48:00 AM 22.3691 -77.7987 142° Southeast  Level FlightAware Approximate
Thu 09:49:00 AM 22.2652 -77.7122 142° Southeast  Level FlightAware Approximate
Thu 09:50:00 AM 22.1612 -77.6259 142° Southeast  Level FlightAware Approximate
Thu 09:51:00 AM 22.0572 -77.5397 142° Southeast  Level FlightAware Approximate
Thu 09:52:00 AM 21.9531 -77.4536 142° Southeast  Level FlightAware Approximate
Thu 09:53:00 AM 21.8490 -77.3676 143° Southeast  Level FlightAware Approximate
Thu 09:54:00 AM 21.7449 -77.2818 143° Southeast  Level FlightAware Approximate
Thu 09:55:00 AM 21.6407 -77.1961 143° Southeast  Level FlightAware Approximate
Thu 09:56:00 AM 21.5364 -77.1105 143° Southeast  Level FlightAware Approximate
Thu 09:57:00 AM 21.4322 -77.0251 143° Southeast  Level FlightAware Approximate
Thu 09:58:00 AM 21.3278 -76.9397 143° Southeast  Level FlightAware Approximate
Thu 09:59:00 AM 21.2235 -76.8545 143° Southeast  Level FlightAware Approximate
Thu 10:00:00 AM 21.1191 -76.7694 143° Southeast  Level FlightAware Approximate
Thu 10:01:00 AM 21.0146 -76.6844 143° Southeast  Level FlightAware Approximate
Thu 10:02:00 AM 20.9101 -76.5996 143° Southeast  Level FlightAware Approximate
Thu 10:03:00 AM 20.8056 -76.5148 143° Southeast  Level FlightAware Approximate
Thu 10:04:00 AM 20.6999 -76.4318 144° Southeast  Level FlightAware Approximate
Thu 10:05:00 AM 20.5936 -76.3498 144° Southeast  Level FlightAware Approximate
Thu 10:06:00 AM 20.4872 -76.2679 144° Southeast  Level FlightAware Approximate
Thu 10:07:00 AM 20.3808 -76.1861 144° Southeast  Level FlightAware Approximate
Thu 10:08:00 AM 20.2743 -76.1044 144° Southeast  Level FlightAware Approximate
Thu 10:09:00 AM 20.1679 -76.0228 144° Southeast  Level FlightAware Approximate
Thu 10:10:00 AM 20.0613 -75.9414 144° Southeast  Level FlightAware Approximate
Thu 10:11:00 AM 19.9548 -75.8600 144° Southeast  Level FlightAware Approximate
Thu 10:12:00 AM 19.8482 -75.7788 144° Southeast  Level FlightAware Approximate
Thu 10:13:00 AM 19.7415 -75.6976 144° Southeast  Level FlightAware Approximate
Thu 10:14:00 AM 19.6348 -75.6166 144° Southeast  Level FlightAware Approximate
Thu 10:15:00 AM 19.5281 -75.5357 144° Southeast  Level FlightAware Approximate
Thu 10:16:00 AM 19.4214 -75.4549 144° Southeast  Level FlightAware Approximate
Thu 10:17:00 AM 19.3146 -75.3742 145° Southeast  Level FlightAware Approximate
Thu 10:18:00 AM 19.2078 -75.2936 145° Southeast  Level FlightAware Approximate
Thu 10:19:00 AM 19.1009 -75.2131 145° Southeast  Level FlightAware Approximate
Thu 10:20:00 AM 18.9940 -75.1328 145° Southeast  Level FlightAware Approximate
Thu 10:21:00 AM 18.8871 -75.0525 145° Southeast  Level FlightAware Approximate
Thu 10:22:00 AM 18.7801 -74.9723 145° Southeast  Level FlightAware Approximate
Thu 10:23:00 AM 18.6731 -74.8922 145° Southeast  Level FlightAware Approximate
Thu 10:24:00 AM 18.5663 -74.8121 144° Southeast  Level FlightAware Approximate
Thu 10:25:00 AM 18.4595 -74.7318 145° Southeast  Level FlightAware Approximate
Thu 10:26:00 AM 18.3526 -74.6516 145° Southeast  Level FlightAware Approximate
Thu 10:27:00 AM 18.2458 -74.5715 145° Southeast  Level FlightAware Approximate
Thu 10:28:00 AM 18.1389 -74.4915 145° Southeast  Level FlightAware Approximate
Thu 10:29:00 AM 18.0320 -74.4117 145° Southeast  Level FlightAware Approximate
Thu 10:30:00 AM 17.9250 -74.3320 145° Southeast  Level FlightAware Approximate
Thu 10:31:00 AM 17.8179 -74.2523 145° Southeast  Level FlightAware Approximate
Thu 10:32:00 AM 17.7109 -74.1728 145° Southeast  Level FlightAware Approximate
Thu 10:33:00 AM 17.6038 -74.0934 145° Southeast  Level FlightAware Approximate
Thu 10:34:00 AM 17.4966 -74.0140 145° Southeast  Level FlightAware Approximate
Thu 10:35:00 AM 17.3895 -73.9348 145° Southeast  Level FlightAware Approximate
Thu 10:36:00 AM 17.2823 -73.8557 145° Southeast  Level FlightAware Approximate
Thu 10:37:00 AM 17.1751 -73.7766 145° Southeast  Level FlightAware Approximate
Thu 10:38:00 AM 17.0678 -73.6976 145° Southeast  Level FlightAware Approximate
Thu 10:39:00 AM 16.9605 -73.6187 145° Southeast  Level FlightAware Approximate
Thu 10:40:00 AM 16.8532 -73.5399 145° Southeast  Level FlightAware Approximate
Thu 10:41:00 AM 16.7459 -73.4613 145° Southeast  Level FlightAware Approximate
Thu 10:42:00 AM 16.6385 -73.3827 145° Southeast  Level FlightAware Approximate
Thu 10:43:00 AM 16.5312 -73.3040 145° Southeast  Level FlightAware Approximate
Thu 10:44:00 AM 16.4239 -73.2254 145° Southeast  Level FlightAware Approximate
Thu 10:45:00 AM 16.3165 -73.1469 145° Southeast  Level FlightAware Approximate
Thu 10:46:00 AM 16.2091 -73.0684 145° Southeast  Level FlightAware Approximate
Thu 10:47:00 AM 16.1017 -72.9901 145° Southeast  Level FlightAware Approximate
Thu 10:48:00 AM 15.9943 -72.9118 145° Southeast  Level FlightAware Approximate
Thu 10:49:00 AM 15.8869 -72.8336 145° Southeast  Level FlightAware Approximate
Thu 10:50:00 AM 15.7794 -72.7555 145° Southeast  Level FlightAware Approximate
Thu 10:51:00 AM 15.6718 -72.6775 145° Southeast  Level FlightAware Approximate
Thu 10:52:00 AM 15.5643 -72.5996 145° Southeast  Level FlightAware Approximate
Thu 10:53:00 AM 15.4567 -72.5218 145° Southeast  Level FlightAware Approximate
Thu 10:54:00 AM 15.3491 -72.4440 145° Southeast  Level FlightAware Approximate
Thu 10:55:00 AM 15.2415 -72.3663 145° Southeast  Level FlightAware Approximate
Thu 10:56:00 AM 15.1339 -72.2887 145° Southeast  Level FlightAware Approximate
Thu 10:57:00 AM 15.0262 -72.2112 145° Southeast  Level FlightAware Approximate
Thu 10:58:00 AM 14.9185 -72.1337 145° Southeast  Level FlightAware Approximate
Thu 10:59:00 AM 14.8107 -72.0563 145° Southeast  Level FlightAware Approximate
Thu 10:59:08 AM 13.9090 -72.3520 145° Southeast 500 575 35,000  Level FlightAware ADS-B
Thu 10:59:42 AM 13.8460 -72.2960 139° Southeast 499 574 35,000  Level FlightAware ADS-B
Thu 11:00:14 AM 13.7940 -72.2460 137° Southeast 497 572 35,000  Level FlightAware ADS-B
Thu 11:00:53 AM 13.7270 -72.1800 136° Southeast 490 564 35,000  Level FlightAware ADS-B
Thu 11:01:23 AM 13.6770 -72.1320 137° Southeast 488 562 35,000  Level FlightAware ADS-B
Thu 11:01:59 AM 13.6170 -72.0750 137° Southeast 489 563 35,000  Level FlightAware ADS-B
Thu 11:02:28 AM 13.5680 -72.0280 137° Southeast 488 562 35,000  Level FlightAware ADS-B
Thu 11:03:08 AM 13.5030 -71.9660 137° Southeast 487 560 35,000  Level FlightAware ADS-B
Thu 11:04:03 AM 13.4090 -71.8780 138° Southeast 487 560 35,000  Level FlightAware ADS-B
Thu 11:04:41 AM 13.3560 -71.8250 136° Southeast 485 558 35,000  Level FlightAware ADS-B
Thu 11:05:09 AM 13.3050 -71.7780 138° Southeast 489 563 35,000  Level FlightAware ADS-B
Thu 11:05:55 AM 13.2220 -71.7000 138° Southeast 492 566 35,000  Level FlightAware ADS-B
Thu 11:06:29 AM 13.1650 -71.6460 137° Southeast 493 567 35,000  Level FlightAware ADS-B
Thu 11:07:07 AM 13.1060 -71.5880 136° Southeast 493 567 35,000  Level FlightAware ADS-B
Thu 11:07:51 AM 13.0380 -71.5230 137° Southeast 493 567 35,000  Level FlightAware ADS-B
Thu 11:08:29 AM 12.9590 -71.4500 138° Southeast 492 566 35,000  Level FlightAware ADS-B
Thu 11:09:04 AM 12.8990 -71.3940 138° Southeast 492 566 35,000  Level FlightAware ADS-B
Thu 11:09:45 AM 12.8310 -71.3290 137° Southeast 490 564 35,000  Level FlightAware ADS-B
Thu 11:10:15 AM 12.7790 -71.2800 137° Southeast 488 562 35,000  Level FlightAware ADS-B
Thu 11:10:55 AM 12.7130 -71.2170 137° Southeast 485 558 35,000  Level FlightAware ADS-B
Thu 11:11:30 AM 12.6530 -71.1610 138° Southeast 485 558 35,000  Level FlightAware ADS-B
Thu 11:12:01 AM 12.6100 -71.1180 136° Southeast 484 557 35,000  Level FlightAware ADS-B
Thu 11:12:40 AM 12.5370 -71.0510 138° Southeast 483 556 35,000  Level FlightAware ADS-B
Thu 11:13:15 AM 12.4770 -71.0010 141° Southeast 487 560 35,000  Level FlightAware ADS-B
Thu 11:13:50 AM 12.4110 -70.9540 145° Southeast 486 559 35,000  Level FlightAware ADS-B
Thu 11:14:24 AM 12.3470 -70.9100 146° Southeast 488 562 35,000  Level FlightAware ADS-B
Thu 11:15:00 AM 12.2800 -70.8630 146° Southeast 488 562 35,000  Level FlightAware ADS-B
Thu 11:15:36 AM 12.2150 -70.8180 146° Southeast 489 563 35,000  Level FlightAware ADS-B
Thu 11:16:10 AM 12.1580 -70.7780 146° Southeast 489 563 35,000  Level FlightAware ADS-B
Thu 11:16:45 AM 12.0820 -70.7260 146° Southeast 489 563 35,000 169 Level FlightAware ADS-B
Thu 11:17:21 AM 12.0160 -70.6800 146° Southeast 487 560 35,200 676 Climbing FlightAware ADS-B
Thu 11:17:56 AM 11.9510 -70.6340 145° Southeast 491 565 35,800 857 Climbing FlightAware ADS-B
Thu 11:18:31 AM 11.8840 -70.5880 146° Southeast 487 560 36,200 738 Climbing FlightAware ADS-B
Thu 11:19:01 AM 11.8260 -70.5480 146° Southeast 488 562 36,600 514 Climbing FlightAware ADS-B
Thu 11:19:41 AM 11.7520 -70.4960 145° Southeast 487 560 36,800 254 Climbing FlightAware ADS-B
Thu 11:20:12 AM 11.7030 -70.4630 147° Southeast 487 560 36,900 171 Climbing FlightAware ADS-B
Thu 11:20:51 AM 11.6190 -70.4040 145° Southeast 492 566 37,000 81 Climbing FlightAware ADS-B
Thu 11:21:26 AM 11.5520 -70.3580 146° Southeast 491 565 37,000  Level FlightAware ADS-B
Thu 11:22:01 AM 11.4870 -70.3130 146° Southeast 489 563 37,000  Level FlightAware ADS-B
Thu 11:22:31 AM 11.4300 -70.2740 146° Southeast 487 560 37,000  Level FlightAware ADS-B
Thu 11:23:06 AM 11.3660 -70.2290 145° Southeast 487 560 37,000  Level FlightAware ADS-B
Thu 11:23:46 AM 11.2910 -70.1780 146° Southeast 486 559 37,000  Level FlightAware ADS-B
Thu 11:24:22 AM 11.2250 -70.1320 146° Southeast 485 558 37,000  Level FlightAware ADS-B
Thu 11:24:52 AM 11.1680 -70.0930 146° Southeast 483 556 37,000  Level FlightAware ADS-B
Thu 11:25:27 AM 11.1030 -70.0480 146° Southeast 482 555 37,000  Level FlightAware ADS-B
Thu 11:26:02 AM 11.0380 -70.0040 146° Southeast 474 545 37,000  Level FlightAware ADS-B
Thu 11:26:42 AM 10.9650 -69.9540 146° Southeast 473 544 37,000  Level FlightAware ADS-B
Thu 11:27:14 AM 10.9090 -69.9150 146° Southeast 473 544 37,000  Level FlightAware ADS-B
Thu 11:27:47 AM 10.8440 -69.8710 146° Southeast 473 544 37,000  Level FlightAware ADS-B
Thu 11:28:22 AM 10.7790 -69.8260 146° Southeast 472 543 37,000  Level FlightAware ADS-B
Thu 11:28:58 AM 10.7140 -69.7810 146° Southeast 469 540 37,000  Level FlightAware ADS-B
Thu 11:29:33 AM 10.6490 -69.7370 146° Southeast 467 537 37,000  Level FlightAware ADS-B
Thu 11:30:18 AM 10.5790 -69.6890 146° Southeast 472 543 37,000  Level FlightAware ADS-B
Thu 11:30:54 AM 10.5020 -69.6360 146° Southeast 473 544 37,000  Level FlightAware ADS-B
Thu 11:31:27 AM 10.4420 -69.5950 146° Southeast 474 545 37,000  Level FlightAware ADS-B
Thu 11:32:02 AM 10.3780 -69.5510 146° Southeast 475 547 37,000  Level FlightAware ADS-B
Thu 11:32:35 AM 10.3170 -69.5100 147° Southeast 475 547 37,000  Level FlightAware ADS-B
Thu 11:33:15 AM 10.2470 -69.4610 145° Southeast 476 548 37,000  Level FlightAware ADS-B
Thu 11:33:47 AM 10.1840 -69.4200 147° Southeast 476 548 37,000  Level FlightAware ADS-B
Thu 11:34:22 AM 10.1180 -69.3800 149° Southeast 476 548 37,000  Level FlightAware ADS-B
Thu 11:35:03 AM 10.0420 -69.3340 149° Southeast 470 541 37,000  Level FlightAware ADS-B
Thu 11:35:28 AM 9.9930 -69.3040 149° Southeast 470 541 37,000  Level FlightAware ADS-B
Thu 11:36:03 AM 9.9250 -69.2720 155° Southeast 469 540 37,000  Level FlightAware ADS-B
Thu 11:36:44 AM 9.8400 -69.2400 160° South 476 548 37,000  Level FlightAware ADS-B
Thu 11:37:18 AM 9.7670 -69.2130 160° South 470 541 37,000  Level FlightAware ADS-B
Thu 11:37:44 AM 9.7170 -69.1870 153° Southeast 477 549 37,000  Level FlightAware ADS-B
Thu 11:38:17 AM 9.6670 -69.1520 145° Southeast 471 542 37,000  Level FlightAware ADS-B
Thu 11:38:56 AM 9.5910 -69.0910 142° Southeast 475 547 37,000  Level FlightAware ADS-B
Thu 11:39:44 AM 9.5130 -69.0230 139° Southeast 467 537 37,000  Level FlightAware ADS-B
Thu 11:40:27 AM 9.4380 -68.9600 140° Southeast 473 544 37,000  Level FlightAware ADS-B
Thu 11:41:01 AM 9.3830 -68.9120 139° Southeast 474 545 37,000  Level FlightAware ADS-B
Thu 11:41:37 AM 9.3280 -68.8640 139° Southeast 473 544 37,000  Level FlightAware ADS-B
Thu 11:42:29 AM 9.2450 -68.7910 139° Southeast 473 544 37,000  Level FlightAware ADS-B
Thu 11:43:01 AM 9.2840 -68.8260 318° Northwest 473 544 37,000  Level FlightAware ADS-B
Thu 11:43:51 AM 9.1150 -68.6740 138° Southeast 472 543 37,000  Level FlightAware ADS-B
Thu 11:44:27 AM 9.0660 -68.6270 137° Southeast 472 543 37,000  Level FlightAware ADS-B
Thu 11:45:21 AM 8.9620 -68.5260 136° Southeast 470 541 37,000  Level FlightAware ADS-B
Thu 11:45:57 AM 8.9100 -68.4730 135° Southeast 471 542 37,000  Level FlightAware ADS-B
Thu 11:46:27 AM 8.8660 -68.4290 135° Southeast 472 543 37,000  Level FlightAware ADS-B
Thu 11:47:03 AM 8.8070 -68.3680 134° Southeast 471 542 37,000  Level FlightAware ADS-B
Thu 11:47:39 AM 8.7520 -68.3130 135° Southeast 471 542 37,000  Level FlightAware ADS-B
Thu 11:48:21 AM 8.6860 -68.2380 132° Southeast 473 544 37,000  Level FlightAware ADS-B
Thu 11:48:57 AM 8.6540 -68.1790 119° Southeast 476 548 37,000  Level FlightAware ADS-B
Thu 11:49:33 AM 8.6110 -68.0980 118° Southeast 476 548 37,000  Level FlightAware ADS-B
Thu 11:50:11 AM 8.5770 -68.0330 118° Southeast 477 549 37,000  Level FlightAware ADS-B
Thu 11:50:57 AM 8.5320 -67.9310 114° Southeast 481 554 37,000  Level FlightAware ADS-B
Thu 11:51:35 AM 8.5050 -67.8640 112° Southeast 481 554 37,000  Level FlightAware ADS-B
Thu 11:52:03 AM 8.4790 -67.8040 114° Southeast 485 558 37,000  Level FlightAware ADS-B
Thu 11:52:39 AM 8.4430 -67.7170 113° Southeast 484 557 37,000  Level FlightAware ADS-B
Thu 11:53:17 AM 8.4160 -67.6500 112° Southeast 486 559 37,000  Level FlightAware ADS-B
Thu 11:54:00 AM 8.3830 -67.5690 112° Southeast 487 560 37,000  Level FlightAware ADS-B
Thu 11:54:36 AM 8.3570 -67.5040 112° Southeast 487 560 37,000 -3 Level FlightAware ADS-B
Thu 11:57:00 AM 8.0942 -67.3290 147° Southeast  Level FlightAware Approximate
Thu 11:58:00 AM 7.9847 -67.2561 147° Southeast  Level FlightAware Approximate
Thu 11:59:00 AM 7.8752 -67.1833 147° Southeast  Level FlightAware Approximate
Thu 12:00:00 PM 7.7656 -67.1105 147° Southeast  Level FlightAware Approximate
Thu 12:01:00 PM 7.6560 -67.0378 147° Southeast  Level FlightAware Approximate
Thu 12:02:00 PM 7.5465 -66.9651 147° Southeast  Level FlightAware Approximate
Thu 12:03:00 PM 7.4369 -66.8924 147° Southeast  Level FlightAware Approximate
Thu 12:04:00 PM 7.3273 -66.8198 147° Southeast  Level FlightAware Approximate
Thu 12:05:00 PM 7.2177 -66.7472 147° Southeast  Level FlightAware Approximate
Thu 12:06:00 PM 7.1081 -66.6747 147° Southeast  Level FlightAware Approximate
Thu 12:07:00 PM 6.9984 -66.6021 147° Southeast  Level FlightAware Approximate
Thu 12:08:00 PM 6.8888 -66.5297 147° Southeast  Level FlightAware Approximate
Thu 12:09:00 PM 6.7792 -66.4572 147° Southeast  Level FlightAware Approximate
Thu 12:10:00 PM 6.6695 -66.3848 147° Southeast  Level FlightAware Approximate
Thu 12:11:00 PM 6.5598 -66.3124 147° Southeast  Level FlightAware Approximate
Thu 12:12:00 PM 6.4501 -66.2400 147° Southeast  Level FlightAware Approximate
Thu 12:13:00 PM 6.3404 -66.1677 147° Southeast  Level FlightAware Approximate
Thu 12:14:00 PM 6.2308 -66.0954 147° Southeast  Level FlightAware Approximate
Thu 12:15:00 PM 6.1210 -66.0231 147° Southeast  Level FlightAware Approximate
Thu 12:16:00 PM 6.0113 -65.9509 147° Southeast  Level FlightAware Approximate
Thu 12:17:00 PM 5.9016 -65.8787 147° Southeast  Level FlightAware Approximate
Thu 12:18:00 PM 5.7919 -65.8065 147° Southeast  Level FlightAware Approximate
Thu 12:19:00 PM 5.6821 -65.7344 147° Southeast  Level FlightAware Approximate
Thu 12:20:00 PM 5.5723 -65.6622 147° Southeast  Level FlightAware Approximate
Thu 12:21:00 PM 5.4626 -65.5902 147° Southeast  Level FlightAware Approximate
Thu 12:22:00 PM 5.3528 -65.5181 147° Southeast  Level FlightAware Approximate
Thu 12:23:00 PM 5.2430 -65.4461 147° Southeast  Level FlightAware Approximate
Thu 12:24:00 PM 5.1332 -65.3740 147° Southeast  Level FlightAware Approximate
Thu 12:25:00 PM 5.0234 -65.3020 147° Southeast  Level FlightAware Approximate
Thu 12:26:00 PM 4.9136 -65.2301 147° Southeast  Level FlightAware Approximate
Thu 12:27:00 PM 4.8038 -65.1581 147° Southeast  Level FlightAware Approximate
Thu 12:28:00 PM 4.6940 -65.0862 147° Southeast  Level FlightAware Approximate
Thu 12:29:00 PM 4.5841 -65.0143 147° Southeast  Level FlightAware Approximate
Thu 12:30:00 PM 4.4743 -64.9424 147° Southeast  Level FlightAware Approximate
Thu 12:31:00 PM 4.3644 -64.8706 147° Southeast  Level FlightAware Approximate
Thu 12:32:00 PM 4.2546 -64.7987 147° Southeast  Level FlightAware Approximate
Thu 12:33:00 PM 4.1447 -64.7269 147° Southeast  Level FlightAware Approximate
Thu 12:34:00 PM 4.0349 -64.6551 147° Southeast  Level FlightAware Approximate
Thu 12:35:00 PM 3.9250 -64.5834 147° Southeast  Level FlightAware Approximate
Thu 12:36:00 PM 3.8151 -64.5116 147° Southeast  Level FlightAware Approximate
Thu 12:37:00 PM 3.7052 -64.4399 147° Southeast  Level FlightAware Approximate
Thu 12:38:00 PM 3.5954 -64.3681 147° Southeast  Level FlightAware Approximate
Thu 12:39:00 PM 3.4855 -64.2964 147° Southeast  Level FlightAware Approximate
Thu 12:40:00 PM 3.3756 -64.2248 147° Southeast  Level FlightAware Approximate
Thu 12:41:00 PM 3.2656 -64.1531 147° Southeast  Level FlightAware Approximate
Thu 12:42:00 PM 3.1557 -64.0814 147° Southeast  Level FlightAware Approximate
Thu 12:43:00 PM 3.0458 -64.0098 147° Southeast  Level FlightAware Approximate
Thu 12:44:00 PM 2.9359 -63.9382 147° Southeast  Level FlightAware Approximate
Thu 12:45:00 PM 2.8260 -63.8666 147° Southeast  Level FlightAware Approximate
Thu 12:46:00 PM 2.7160 -63.7950 147° Southeast  Level FlightAware Approximate
Thu 12:47:00 PM 2.6061 -63.7234 147° Southeast  Level FlightAware Approximate
Thu 12:48:00 PM 2.4962 -63.6518 147° Southeast  Level FlightAware Approximate
Thu 12:49:00 PM 2.3862 -63.5803 147° Southeast  Level FlightAware Approximate
Thu 12:50:00 PM 2.2763 -63.5087 147° Southeast  Level FlightAware Approximate
Thu 12:51:00 PM 2.1663 -63.4372 147° Southeast  Level FlightAware Approximate
Thu 12:52:00 PM 2.0564 -63.3656 147° Southeast  Level FlightAware Approximate
Thu 12:53:00 PM 1.9464 -63.2941 147° Southeast  Level FlightAware Approximate
Thu 12:54:00 PM 1.8364 -63.2226 147° Southeast  Level FlightAware Approximate
Thu 12:55:00 PM 1.7265 -63.1511 147° Southeast  Level FlightAware Approximate
Thu 12:56:00 PM 1.6165 -63.0796 147° Southeast  Level FlightAware Approximate
Thu 12:57:00 PM 1.5065 -63.0081 147° Southeast  Level FlightAware Approximate
Thu 12:58:00 PM 1.3966 -62.9367 147° Southeast  Level FlightAware Approximate
Thu 12:59:00 PM 1.2866 -62.8652 147° Southeast  Level FlightAware Approximate
Thu 01:00:00 PM 1.1766 -62.7937 147° Southeast  Level FlightAware Approximate
Thu 01:01:00 PM 1.0667 -62.7223 147° Southeast  Level FlightAware Approximate
Thu 01:02:00 PM 0.9567 -62.6508 147° Southeast  Level FlightAware Approximate
Thu 01:03:00 PM 0.8467 -62.5794 147° Southeast  Level FlightAware Approximate
Thu 01:04:00 PM 0.7367 -62.5079 147° Southeast  Level FlightAware Approximate
Thu 01:05:00 PM 0.6267 -62.4365 147° Southeast  Level FlightAware Approximate
Thu 01:06:00 PM 0.5168 -62.3651 147° Southeast  Level FlightAware Approximate
Thu 01:07:00 PM 0.4068 -62.2936 147° Southeast  Level FlightAware Approximate
Thu 01:08:00 PM 0.2968 -62.2222 147° Southeast  Level FlightAware Approximate
Thu 01:09:00 PM 0.1868 -62.1508 147° Southeast  Level FlightAware Approximate
Thu 01:10:00 PM 0.0768 -62.0793 147° Southeast  Level FlightAware Approximate
Thu 01:11:00 PM -0.0332 -62.0079 147° Southeast  Level FlightAware Approximate
Thu 01:12:00 PM -0.1432 -61.9365 147° Southeast  Level FlightAware Approximate
Thu 01:13:00 PM -0.2531 -61.8651 147° Southeast  Level FlightAware Approximate
Thu 01:14:00 PM -0.3631 -61.7936 147° Southeast  Level FlightAware Approximate
Thu 01:15:00 PM -0.4731 -61.7222 147° Southeast  Level FlightAware Approximate
Thu 01:16:00 PM -0.5831 -61.6508 147° Southeast  Level FlightAware Approximate
Thu 01:17:00 PM -0.6931 -61.5793 147° Southeast  Level FlightAware Approximate
Thu 01:18:00 PM -0.8030 -61.5079 147° Southeast  Level FlightAware Approximate
Thu 01:19:00 PM -0.9130 -61.4365 147° Southeast  Level FlightAware Approximate
Thu 01:19:53 PM -1.3510 -61.4210 147° Southeast 452 520 36,700  Level FlightAware ADS-B
Thu 01:20:00 PM -1.0230 -61.3650 147° Southeast  Level FlightAware Approximate
Thu 01:20:27 PM -1.4070 -61.3790 143° Southeast 446 513 35,500  Level FlightAware ADS-B
Thu 01:21:05 PM -1.4690 -61.3310 142° Southeast 442 509 34,200 -2,057 Descending FlightAware ADS-B
Thu 01:21:37 PM -1.5210 -61.2910 142° Southeast 436 502 33,100 -2,031 Descending FlightAware ADS-B
Thu 01:22:10 PM -1.5720 -61.2520 143° Southeast 431 496 32,000 -2,000 Descending FlightAware ADS-B
Thu 01:22:49 PM -1.6350 -61.2040 143° Southeast 425 489 30,700 -1,973 Descending FlightAware ADS-B
Thu 01:23:23 PM -1.6880 -61.1640 143° Southeast 420 483 29,600 -930 Descending FlightAware ADS-B
Thu 01:24:00 PM -1.7360 -61.1260 142° Southeast 420 483 29,600 -2,000 Level FlightAware ADS-B
Thu 01:24:35 PM -1.7970 -61.0800 143° Southeast 414 476 27,200 -3,224 Descending FlightAware ADS-B
Thu 01:25:07 PM -1.8470 -61.0420 143° Southeast 414 476 26,000 -2,182 Descending FlightAware ADS-B
Thu 01:25:41 PM -1.8990 -61.0020 142° Southeast 409 471 24,800 -2,057 Descending FlightAware ADS-B
Thu 01:26:17 PM -1.9520 -60.9610 142° Southeast 406 467 23,600 -2,028 Descending FlightAware ADS-B
Thu 01:26:52 PM -2.0030 -60.9210 142° Southeast 403 464 22,400 -2,229 Descending FlightAware ADS-B
Thu 01:27:27 PM -2.0590 -60.8850 147° Southeast 405 466 21,000 -2,250 Descending FlightAware ADS-B
Thu 01:28:04 PM -2.1180 -60.8500 149° Southeast 401 461 19,700 -1,917 Descending FlightAware ADS-B
Thu 01:28:39 PM -2.1720 -60.8160 148° Southeast 392 451 18,700 -1,938 Descending FlightAware ADS-B
Thu 01:29:09 PM -2.2200 -60.7850 147° Southeast 388 447 17,600 -1,853 Descending FlightAware ADS-B
Thu 01:29:47 PM -2.2750 -60.7480 146° Southeast 379 436 16,600 -1,784 Descending FlightAware ADS-B
Thu 01:30:23 PM -2.3280 -60.7140 147° Southeast 375 432 15,400 -1,971 Descending FlightAware ADS-B
Thu 01:30:57 PM -2.3750 -60.6780 143° Southeast 371 427 14,300 -1,833 Descending FlightAware ADS-B
Thu 01:31:35 PM -2.4250 -60.6370 141° Southeast 367 422 13,200 -1,714 Descending FlightAware ADS-B
Thu 01:32:07 PM -2.4670 -60.6030 141° Southeast 363 418 12,300 -1,548 Descending FlightAware ADS-B
Thu 01:32:37 PM -2.5060 -60.5740 143° Southeast 354 407 11,600 -623 Descending FlightAware ADS-B
Thu 01:33:24 PM -2.5540 -60.5360 142° Southeast 354 407 11,500 -1,355 Descending FlightAware ADS-B
Thu 01:33:39 PM -2.5740 -60.5030 121° Southeast 333 383 10,200 -2,757 Descending FlightAware ADS-B
Thu 01:34:01 PM -2.5830 -60.4700 105° East 323 372 9,800 -732 Descending FlightAware ADS-B
Thu 01:34:20 PM -2.5920 -60.4450 110° East 309 356 9,700 -474 Descending FlightAware ADS-B
Thu 01:34:39 PM -2.6040 -60.4210 117° Southeast 298 343 9,500 -1,067 Descending FlightAware ADS-B
Thu 01:35:05 PM -2.6210 -60.3890 118° Southeast 294 338 8,900 -1,350 Descending FlightAware ADS-B
Thu 01:35:19 PM -2.6280 -60.3750 117° Southeast 293 337 8,600 -1,059 Descending FlightAware ADS-B
Thu 01:35:39 PM -2.6420 -60.3490 118° Southeast 285 328 8,300 -1,000 Descending FlightAware ADS-B
Thu 01:36:01 PM -2.6570 -60.3230 120° Southeast 278 320 7,900 -1,200 Descending FlightAware ADS-B
Thu 01:36:19 PM -2.6680 -60.3040 120° Southeast 274 315 7,500 -1,421 Descending FlightAware ADS-B
Thu 01:36:39 PM -2.6810 -60.2820 121° Southeast 274 315 7,000 -1,256 Descending FlightAware ADS-B
Thu 01:37:02 PM -2.6940 -60.2570 118° Southeast 271 312 6,600 -1,200 Descending FlightAware ADS-B
Thu 01:37:24 PM -2.7070 -60.2320 118° Southeast 268 308 6,100 -1,263 Descending FlightAware ADS-B
Thu 01:37:40 PM -2.7160 -60.2150 118° Southeast 268 308 5,800 -1,171 Descending FlightAware ADS-B
Thu 01:38:05 PM -2.7310 -60.1870 118° Southeast 267 307 5,300 -977 Descending FlightAware ADS-B
Thu 01:38:23 PM -2.7410 -60.1670 117° Southeast 260 299 5,100 -474 Descending FlightAware ADS-B
Thu 01:38:43 PM -2.7490 -60.1440 109° East 257 296 5,000 -128 Descending FlightAware ADS-B
Thu 01:39:10 PM -2.7580 -60.1150 107° East 247 284 5,000 -136 Level FlightAware ADS-B
Thu 01:39:27 PM -2.7660 -60.0980 115° Southeast 233 268 4,900 -462 Descending FlightAware ADS-B
Thu 01:39:49 PM -2.7770 -60.0760 117° Southeast 225 259 4,700 133 Descending FlightAware ADS-B
Thu 01:40:12 PM -2.7870 -60.0560 117° Southeast 230 265 5,000 545 Climbing FlightAware ADS-B
Thu 01:40:33 PM -2.7970 -60.0360 117° Southeast 227 261 5,100  Climbing FlightAware ADS-B
Thu 01:40:55 PM -2.8090 -60.0160 121° Southeast 224 258 5,000 -158 Descending FlightAware ADS-B
Thu 01:41:11 PM -2.8180 -60.0010 121° Southeast 223 257 5,000  Level FlightAware ADS-B
Thu 01:41:37 PM -2.8300 -59.9780 118° Southeast 222 255 5,000  Level FlightAware ADS-B
Thu 01:41:53 PM -2.8380 -59.9620 117° Southeast 227 261 5,000  Level FlightAware ADS-B
Thu 01:42:19 PM -2.8510 -59.9390 120° Southeast 226 260 5,000 -130 Level FlightAware ADS-B
Thu 01:42:39 PM -2.8600 -59.9200 115° Southeast 230 265 4,900 150 Descending FlightAware ADS-B
Thu 01:42:59 PM -2.8700 -59.9010 118° Southeast 226 260 5,100 429 Climbing FlightAware ADS-B
Thu 01:43:07 PM -2.8760 -59.8940 131° Southeast 231 266 5,100 -375 Level FlightAware ADS-B
Thu 01:43:15 PM -2.8820 -59.8890 140° Southeast 235 270 5,000 -1,200 Descending FlightAware ADS-B
Thu 01:43:27 PM -2.8920 -59.8810 141° Southeast 239 275 4,700 -1,273 Descending FlightAware ADS-B
Thu 01:43:48 PM -2.9130 -59.8700 152° Southeast 236 272 4,300 -1,024 Descending FlightAware ADS-B
Thu 01:44:08 PM -2.9320 -59.8610 155° Southeast 230 265 4,000 -878 Descending FlightAware ADS-B
Thu 01:44:29 PM -2.9530 -59.8530 159° South 225 259 3,700 -1,116 Descending FlightAware ADS-B
Thu 01:44:51 PM -2.9750 -59.8430 156° South 226 260 3,200 -1,171 Descending FlightAware ADS-B
Thu 01:45:10 PM -2.9920 -59.8350 155° Southeast 224 258 2,900 -857 Descending FlightAware ADS-B
Thu 01:45:19 PM -3.0000 -59.8330 166° South 216 249 2,800 -514 Descending FlightAware ADS-B
Thu 01:45:45 PM -3.0270 -59.8370 188° South 230 265 2,600 -500 Descending FlightAware ADS-B
Thu 01:45:55 PM -3.0360 -59.8440 218° Southwest 224 258 2,500 -333 Descending FlightAware ADS-B
Thu 01:46:03 PM -3.0420 -59.8500 225° Southwest 222 255 2,500 -222 Level FlightAware ADS-B
Thu 01:46:22 PM -3.0500 -59.8630 238° Southwest 211 243 2,400 -462 Descending FlightAware ADS-B
Thu 01:46:29 PM -3.0520 -59.8730 259° West 204 235 2,300 -400 Descending FlightAware ADS-B
Thu 01:46:37 PM -3.0520 -59.8800 270° West 209 241 2,300 -250 Level FlightAware ADS-B
Thu 01:46:53 PM -3.0490 -59.8960 281° West 216 249 2,200 -429 Descending FlightAware ADS-B
Thu 01:47:19 PM -3.0430 -59.9190 285° West 210 242 2,000 -261 Descending FlightAware ADS-B
Thu 01:47:39 PM -3.0400 -59.9390 279° West 191 220 2,000 -150 Level FlightAware ADS-B
Thu 01:47:59 PM -3.0390 -59.9560 273° West 180 207 1,900 -698 Descending FlightAware ADS-B
Thu 01:48:22 PM -3.0390 -59.9740 270° West 173 199 1,500 -955 Descending FlightAware ADS-B
Thu 01:48:43 PM -3.0390 -59.9910 270° West 166 191 1,200 -732 Descending FlightAware ADS-B
Thu 01:49:03 PM -3.0390 -60.0070 270° West 159 183 1,000 -732 Descending FlightAware ADS-B
Thu 01:49:24 PM -3.0390 -60.0210 270° West 159 183 700 -407 Descending FlightAware ADS-B
Thu 01:50:02 PM -3.0390 -60.0460 270° West 156 180 600 -158 Descending FlightAware ADS-B
Thu 01:52:00 PM -3.0386 -60.0497 153° Southeast  Level Estimated
Thu 01:53:00 PM -3.0386 -60.0497 153° Southeast  Level Estimated

Login

Don't have an account? Register now (free) for customized features, flight alerts, and more!